Aviation Digital Data Service (ADDS)

Output produced by METARs form (1605 UTC 23 January 2019)
found at http://www.aviationweather.gov/metar/data/
 
METAR text: VVCR 231530Z 03010KT 9999 FEW015 24/17 Q1017 NOSIG
Conditions at: VVCR (CAM RANH BAY , VN) observed 1530 UTC 23 January 2019
Temperature: 24.0°C (75°F)
Dewpoint: 17.0°C (63°F) [RH = 65%]
Pressure (altimeter): 30.03 inches Hg (1017.0 mb)
Winds: from the NNE (30 degrees) at 12 MPH (10 knots; 5.1 m/s)
Visibility: 6 or more miles (10+ km)
Ceiling: at least 12,000 feet AGL
Clouds: few clouds at 1500 feet AGL
Weather: no significant weather observed at this time

METAR text: VVCR 231500Z 03011KT 9999 FEW015 24/18 Q1017 NOSIG
Conditions at: VVCR (CAM RANH BAY , VN) observed 1500 UTC 23 January 2019
Temperature: 24.0°C (75°F)
Dewpoint: 18.0°C (64°F) [RH = 69%]
Pressure (altimeter): 30.03 inches Hg (1017.0 mb)
Winds: from the NNE (30 degrees) at 13 MPH (11 knots; 5.7 m/s)
Visibility: 6 or more miles (10+ km)
Ceiling: at least 12,000 feet AGL
Clouds: few clouds at 1500 feet AGL
Weather: no significant weather observed at this time

METAR text: VVCR 231430Z 04013KT 9999 FEW015 24/17 Q1017 NOSIG
Conditions at: VVCR (CAM RANH BAY , VN) observed 1430 UTC 23 January 2019
Temperature: 24.0°C (75°F)
Dewpoint: 17.0°C (63°F) [RH = 65%]
Pressure (altimeter): 30.03 inches Hg (1017.0 mb)
Winds: from the NE (40 degrees) at 15 MPH (13 knots; 6.7 m/s)
Visibility: 6 or more miles (10+ km)
Ceiling: at least 12,000 feet AGL
Clouds: few clouds at 1500 feet AGL
Weather: no significant weather observed at this time

METAR text: VVCR 231400Z 04015KT 9999 FEW015 24/17 Q1017 NOSIG
Conditions at: VVCR (CAM RANH BAY , VN) observed 1400 UTC 23 January 2019
Temperature: 24.0°C (75°F)
Dewpoint: 17.0°C (63°F) [RH = 65%]
Pressure (altimeter): 30.03 inches Hg (1017.0 mb)
Winds: from the NE (40 degrees) at 17 MPH (15 knots; 7.7 m/s)
Visibility: 6 or more miles (10+ km)
Ceiling: at least 12,000 feet AGL
Clouds: few clouds at 1500 feet AGL
Weather: no significant weather observed at this time

METAR text: VVCR 231330Z 03011KT 9999 FEW015 24/18 Q1017 NOSIG
Conditions at: VVCR (CAM RANH BAY , VN) observed 1330 UTC 23 January 2019
Temperature: 24.0°C (75°F)
Dewpoint: 18.0°C (64°F) [RH = 69%]
Pressure (altimeter): 30.03 inches Hg (1017.0 mb)
Winds: from the NNE (30 degrees) at 13 MPH (11 knots; 5.7 m/s)
Visibility: 6 or more miles (10+ km)
Ceiling: at least 12,000 feet AGL
Clouds: few clouds at 1500 feet AGL
Weather: no significant weather observed at this time

METAR text: VVCR 231300Z 03009KT 9999 FEW015 24/18 Q1017 NOSIG
Conditions at: VVCR (CAM RANH BAY , VN) observed 1300 UTC 23 January 2019
Temperature: 24.0°C (75°F)
Dewpoint: 18.0°C (64°F) [RH = 69%]
Pressure (altimeter): 30.03 inches Hg (1017.0 mb)
Winds: from the NNE (30 degrees) at 10 MPH (9 knots; 4.6 m/s)
Visibility: 6 or more miles (10+ km)
Ceiling: at least 12,000 feet AGL
Clouds: few clouds at 1500 feet AGL
Weather: no significant weather observed at this time

METAR text: VVCR 231230Z 05013KT 9999 FEW015 24/18 Q1017 NOSIG
Conditions at: VVCR (CAM RANH BAY , VN) observed 1230 UTC 23 January 2019
Temperature: 24.0°C (75°F)
Dewpoint: 18.0°C (64°F) [RH = 69%]
Pressure (altimeter): 30.03 inches Hg (1017.0 mb)
Winds: from the NE (50 degrees) at 15 MPH (13 knots; 6.7 m/s)
Visibility: 6 or more miles (10+ km)
Ceiling: at least 12,000 feet AGL
Clouds: few clouds at 1500 feet AGL
Weather: no significant weather observed at this time

METAR text: VVCR 231200Z 05014KT 9999 FEW015 25/18 Q1016 NOSIG
Conditions at: VVCR (CAM RANH BAY , VN) observed 1200 UTC 23 January 2019
Temperature: 25.0°C (77°F)
Dewpoint: 18.0°C (64°F) [RH = 65%]
Pressure (altimeter): 30.00 inches Hg (1016.0 mb)
Winds: from the NE (50 degrees) at 16 MPH (14 knots; 7.2 m/s)
Visibility: 6 or more miles (10+ km)
Ceiling: at least 12,000 feet AGL
Clouds: few clouds at 1500 feet AGL
Weather: no significant weather observed at this time

METAR text: VVCR 231130Z 06016KT 9999 FEW015 25/18 Q1016 NOSIG
Conditions at: VVCR (CAM RANH BAY , VN) observed 1130 UTC 23 January 2019
Temperature: 25.0°C (77°F)
Dewpoint: 18.0°C (64°F) [RH = 65%]
Pressure (altimeter): 30.00 inches Hg (1016.0 mb)
Winds: from the ENE (60 degrees) at 18 MPH (16 knots; 8.2 m/s)
Visibility: 6 or more miles (10+ km)
Ceiling: at least 12,000 feet AGL
Clouds: few clouds at 1500 feet AGL
Weather: no significant weather observed at this time

METAR text: VVCR 231100Z 06014KT 9999 FEW015 25/18 Q1016 NOSIG
Conditions at: VVCR (CAM RANH BAY , VN) observed 1100 UTC 23 January 2019
Temperature: 25.0°C (77°F)
Dewpoint: 18.0°C (64°F) [RH = 65%]
Pressure (altimeter): 30.00 inches Hg (1016.0 mb)
Winds: from the ENE (60 degrees) at 16 MPH (14 knots; 7.2 m/s)
Visibility: 6 or more miles (10+ km)
Ceiling: at least 12,000 feet AGL
Clouds: few clouds at 1500 feet AGL
Weather: no significant weather observed at this time

METAR text: VVCR 231030Z 06015KT 9999 FEW015 25/18 Q1015 NOSIG
Conditions at: VVCR (CAM RANH BAY , VN) observed 1030 UTC 23 January 2019
Temperature: 25.0°C (77°F)
Dewpoint: 18.0°C (64°F) [RH = 65%]
Pressure (altimeter): 29.97 inches Hg (1015.0 mb)
Winds: from the ENE (60 degrees) at 17 MPH (15 knots; 7.7 m/s)
Visibility: 6 or more miles (10+ km)
Ceiling: at least 12,000 feet AGL
Clouds: few clouds at 1500 feet AGL
Weather: no significant weather observed at this time

METAR text: VVCR 231000Z 06015KT 9999 FEW015 25/18 Q1015 NOSIG
Conditions at: VVCR (CAM RANH BAY , VN) observed 1000 UTC 23 January 2019
Temperature: 25.0°C (77°F)
Dewpoint: 18.0°C (64°F) [RH = 65%]
Pressure (altimeter): 29.97 inches Hg (1015.0 mb)
Winds: from the ENE (60 degrees) at 17 MPH (15 knots; 7.7 m/s)
Visibility: 6 or more miles (10+ km)
Ceiling: at least 12,000 feet AGL
Clouds: few clouds at 1500 feet AGL
Weather: no significant weather observed at this time

METAR text: VVCR 230930Z 06016KT 9999 FEW015 26/19 Q1015 NOSIG
Conditions at: VVCR (CAM RANH BAY , VN) observed 0930 UTC 23 January 2019
Temperature: 26.0°C (79°F)
Dewpoint: 19.0°C (66°F) [RH = 65%]
Pressure (altimeter): 29.97 inches Hg (1015.0 mb)
Winds: from the ENE (60 degrees) at 18 MPH (16 knots; 8.2 m/s)
Visibility: 6 or more miles (10+ km)
Ceiling: at least 12,000 feet AGL
Clouds: few clouds at 1500 feet AGL
Weather: no significant weather observed at this time

METAR text: VVCR 230900Z 06015KT 9999 FEW015 26/19 Q1015 NOSIG
Conditions at: VVCR (CAM RANH BAY , VN) observed 0900 UTC 23 January 2019
Temperature: 26.0°C (79°F)
Dewpoint: 19.0°C (66°F) [RH = 65%]
Pressure (altimeter): 29.97 inches Hg (1015.0 mb)
Winds: from the ENE (60 degrees) at 17 MPH (15 knots; 7.7 m/s)
Visibility: 6 or more miles (10+ km)
Ceiling: at least 12,000 feet AGL
Clouds: few clouds at 1500 feet AGL
Weather: no significant weather observed at this time

METAR text: VVCR 230830Z 07019KT 9999 FEW015 27/18 Q1015 NOSIG
Conditions at: VVCR (CAM RANH BAY , VN) observed 0830 UTC 23 January 2019
Temperature: 27.0°C (81°F)
Dewpoint: 18.0°C (64°F) [RH = 58%]
Pressure (altimeter): 29.97 inches Hg (1015.0 mb)
Winds: from the ENE (70 degrees) at 22 MPH (19 knots; 9.8 m/s)
Visibility: 6 or more miles (10+ km)
Ceiling: at least 12,000 feet AGL
Clouds: few clouds at 1500 feet AGL
Weather: no significant weather observed at this time

METAR text: VVCR 230800Z 06018KT 9999 FEW015 28/18 Q1014 NOSIG
Conditions at: VVCR (CAM RANH BAY , VN) observed 0800 UTC 23 January 2019
Temperature: 28.0°C (82°F)
Dewpoint: 18.0°C (64°F) [RH = 55%]
Pressure (altimeter): 29.94 inches Hg (1014.0 mb)
Winds: from the ENE (60 degrees) at 21 MPH (18 knots; 9.3 m/s)
Visibility: 6 or more miles (10+ km)
Ceiling: at least 12,000 feet AGL
Clouds: few clouds at 1500 feet AGL
Weather: no significant weather observed at this time

METAR text: VVCR 230730Z 07017KT 9999 FEW015 28/18 Q1015 NOSIG
Conditions at: VVCR (CAM RANH BAY , VN) observed 0730 UTC 23 January 2019
Temperature: 28.0°C (82°F)
Dewpoint: 18.0°C (64°F) [RH = 55%]
Pressure (altimeter): 29.97 inches Hg (1015.0 mb)
Winds: from the ENE (70 degrees) at 20 MPH (17 knots; 8.7 m/s)
Visibility: 6 or more miles (10+ km)
Ceiling: at least 12,000 feet AGL
Clouds: few clouds at 1500 feet AGL
Weather: no significant weather observed at this time

METAR text: VVCR 230700Z 06016KT 9999 FEW015 28/18 Q1015 NOSIG
Conditions at: VVCR (CAM RANH BAY , VN) observed 0700 UTC 23 January 2019
Temperature: 28.0°C (82°F)
Dewpoint: 18.0°C (64°F) [RH = 55%]
Pressure (altimeter): 29.97 inches Hg (1015.0 mb)
Winds: from the ENE (60 degrees) at 18 MPH (16 knots; 8.2 m/s)
Visibility: 6 or more miles (10+ km)
Ceiling: at least 12,000 feet AGL
Clouds: few clouds at 1500 feet AGL
Weather: no significant weather observed at this time

METAR text: VVCR 230630Z 06014KT 9999 FEW015 29/18 Q1015 NOSIG
Conditions at: VVCR (CAM RANH BAY , VN) observed 0630 UTC 23 January 2019
Temperature: 29.0°C (84°F)
Dewpoint: 18.0°C (64°F) [RH = 52%]
Pressure (altimeter): 29.97 inches Hg (1015.0 mb)
Winds: from the ENE (60 degrees) at 16 MPH (14 knots; 7.2 m/s)
Visibility: 6 or more miles (10+ km)
Ceiling: at least 12,000 feet AGL
Clouds: few clouds at 1500 feet AGL
Weather: no significant weather observed at this time

METAR text: VVCR 230600Z 05015KT 9999 FEW015 28/18 Q1016 NOSIG
Conditions at: VVCR (CAM RANH BAY , VN) observed 0600 UTC 23 January 2019
Temperature: 28.0°C (82°F)
Dewpoint: 18.0°C (64°F) [RH = 55%]
Pressure (altimeter): 30.00 inches Hg (1016.0 mb)
Winds: from the NE (50 degrees) at 17 MPH (15 knots; 7.7 m/s)
Visibility: 6 or more miles (10+ km)
Ceiling: at least 12,000 feet AGL
Clouds: few clouds at 1500 feet AGL
Weather: no significant weather observed at this time

METAR text: VVCR 230530Z 05016KT 9999 FEW015 28/18 Q1016 NOSIG
Conditions at: VVCR (CAM RANH BAY , VN) observed 0530 UTC 23 January 2019
Temperature: 28.0°C (82°F)
Dewpoint: 18.0°C (64°F) [RH = 55%]
Pressure (altimeter): 30.00 inches Hg (1016.0 mb)
Winds: from the NE (50 degrees) at 18 MPH (16 knots; 8.2 m/s)
Visibility: 6 or more miles (10+ km)
Ceiling: at least 12,000 feet AGL
Clouds: few clouds at 1500 feet AGL
Weather: no significant weather observed at this time

METAR text: VVCR 230500Z 06017KT 9999 FEW015 28/18 Q1017 NOSIG
Conditions at: VVCR (CAM RANH BAY , VN) observed 0500 UTC 23 January 2019
Temperature: 28.0°C (82°F)
Dewpoint: 18.0°C (64°F) [RH = 55%]
Pressure (altimeter): 30.03 inches Hg (1017.0 mb)
Winds: from the ENE (60 degrees) at 20 MPH (17 knots; 8.7 m/s)
Visibility: 6 or more miles (10+ km)
Ceiling: at least 12,000 feet AGL
Clouds: few clouds at 1500 feet AGL
Weather: no significant weather observed at this time

METAR text: VVCR 230430Z 06016KT 9999 FEW015 28/18 Q1017 NOSIG
Conditions at: VVCR (CAM RANH BAY , VN) observed 0430 UTC 23 January 2019
Temperature: 28.0°C (82°F)
Dewpoint: 18.0°C (64°F) [RH = 55%]
Pressure (altimeter): 30.03 inches Hg (1017.0 mb)
Winds: from the ENE (60 degrees) at 18 MPH (16 knots; 8.2 m/s)
Visibility: 6 or more miles (10+ km)
Ceiling: at least 12,000 feet AGL
Clouds: few clouds at 1500 feet AGL
Weather: no significant weather observed at this time

METAR text: VVCR 230400Z 05015KT 9999 FEW015 27/19 Q1017 NOSIG
Conditions at: VVCR (CAM RANH BAY , VN) observed 0400 UTC 23 January 2019
Temperature: 27.0°C (81°F)
Dewpoint: 19.0°C (66°F) [RH = 62%]
Pressure (altimeter): 30.03 inches Hg (1017.0 mb)
Winds: from the NE (50 degrees) at 17 MPH (15 knots; 7.7 m/s)
Visibility: 6 or more miles (10+ km)
Ceiling: at least 12,000 feet AGL
Clouds: few clouds at 1500 feet AGL
Weather: no significant weather observed at this time

METAR text: VVCR 230330Z 05014KT 9999 FEW015 28/19 Q1018 NOSIG
Conditions at: VVCR (CAM RANH BAY , VN) observed 0330 UTC 23 January 2019
Temperature: 28.0°C (82°F)
Dewpoint: 19.0°C (66°F) [RH = 58%]
Pressure (altimeter): 30.06 inches Hg (1018.0 mb)
Winds: from the NE (50 degrees) at 16 MPH (14 knots; 7.2 m/s)
Visibility: 6 or more miles (10+ km)
Ceiling: at least 12,000 feet AGL
Clouds: few clouds at 1500 feet AGL
Weather: no significant weather observed at this time

METAR text: VVCR 230300Z 04013KT 9999 FEW015 27/19 Q1018 NOSIG
Conditions at: VVCR (CAM RANH BAY , VN) observed 0300 UTC 23 January 2019
Temperature: 27.0°C (81°F)
Dewpoint: 19.0°C (66°F) [RH = 62%]
Pressure (altimeter): 30.06 inches Hg (1018.0 mb)
Winds: from the NE (40 degrees) at 15 MPH (13 knots; 6.7 m/s)
Visibility: 6 or more miles (10+ km)
Ceiling: at least 12,000 feet AGL
Clouds: few clouds at 1500 feet AGL
Weather: no significant weather observed at this time

METAR text: VVCR 230230Z 04012KT 9999 FEW015 27/19 Q1018 NOSIG
Conditions at: VVCR (CAM RANH BAY , VN) observed 0230 UTC 23 January 2019
Temperature: 27.0°C (81°F)
Dewpoint: 19.0°C (66°F) [RH = 62%]
Pressure (altimeter): 30.06 inches Hg (1018.0 mb)
Winds: from the NE (40 degrees) at 14 MPH (12 knots; 6.2 m/s)
Visibility: 6 or more miles (10+ km)
Ceiling: at least 12,000 feet AGL
Clouds: few clouds at 1500 feet AGL
Weather: no significant weather observed at this time

METAR text: VVCR 230200Z 04012KT 9999 FEW015 27/18 Q1018 NOSIG
Conditions at: VVCR (CAM RANH BAY , VN) observed 0200 UTC 23 January 2019
Temperature: 27.0°C (81°F)
Dewpoint: 18.0°C (64°F) [RH = 58%]
Pressure (altimeter): 30.06 inches Hg (1018.0 mb)
Winds: from the NE (40 degrees) at 14 MPH (12 knots; 6.2 m/s)
Visibility: 6 or more miles (10+ km)
Ceiling: at least 12,000 feet AGL
Clouds: few clouds at 1500 feet AGL
Weather: no significant weather observed at this time

METAR text: VVCR 230130Z 05013KT 9999 FEW015 26/18 Q1018 NOSIG
Conditions at: VVCR (CAM RANH BAY , VN) observed 0130 UTC 23 January 2019
Temperature: 26.0°C (79°F)
Dewpoint: 18.0°C (64°F) [RH = 61%]
Pressure (altimeter): 30.06 inches Hg (1018.0 mb)
Winds: from the NE (50 degrees) at 15 MPH (13 knots; 6.7 m/s)
Visibility: 6 or more miles (10+ km)
Ceiling: at least 12,000 feet AGL
Clouds: few clouds at 1500 feet AGL
Weather: no significant weather observed at this time

METAR text: VVCR 230100Z 01007KT 9999 FEW015 25/18 Q1018 NOSIG
Conditions at: VVCR (CAM RANH BAY , VN) observed 0100 UTC 23 January 2019
Temperature: 25.0°C (77°F)
Dewpoint: 18.0°C (64°F) [RH = 65%]
Pressure (altimeter): 30.06 inches Hg (1018.0 mb)
Winds: from the N (10 degrees) at 8 MPH (7 knots; 3.6 m/s)
Visibility: 6 or more miles (10+ km)
Ceiling: at least 12,000 feet AGL
Clouds: few clouds at 1500 feet AGL
Weather: no significant weather observed at this time

METAR text: VVCR 230030Z 01006KT 9999 FEW015 24/18 Q1018 NOSIG
Conditions at: VVCR (CAM RANH BAY , VN) observed 0030 UTC 23 January 2019
Temperature: 24.0°C (75°F)
Dewpoint: 18.0°C (64°F) [RH = 69%]
Pressure (altimeter): 30.06 inches Hg (1018.0 mb)
Winds: from the N (10 degrees) at 7 MPH (6 knots; 3.1 m/s)
Visibility: 6 or more miles (10+ km)
Ceiling: at least 12,000 feet AGL
Clouds: few clouds at 1500 feet AGL
Weather: no significant weather observed at this time

METAR text: VVCR 230000Z 36006KT 9999 FEW015 23/19 Q1017 NOSIG
Conditions at: VVCR (CAM RANH BAY , VN) observed 0000 UTC 23 January 2019
Temperature: 23.0°C (73°F)
Dewpoint: 19.0°C (66°F) [RH = 78%]
Pressure (altimeter): 30.03 inches Hg (1017.0 mb)
Winds: from the N (360 degrees) at 7 MPH (6 knots; 3.1 m/s)
Visibility: 6 or more miles (10+ km)
Ceiling: at least 12,000 feet AGL
Clouds: few clouds at 1500 feet AGL
Weather: no significant weather observed at this time

METAR text: VVCR 222330Z 36006KT 9999 FEW015 23/18 Q1017 NOSIG
Conditions at: VVCR (CAM RANH BAY , VN) observed 2330 UTC 22 January 2019
Temperature: 23.0°C (73°F)
Dewpoint: 18.0°C (64°F) [RH = 73%]
Pressure (altimeter): 30.03 inches Hg (1017.0 mb)
Winds: from the N (360 degrees) at 7 MPH (6 knots; 3.1 m/s)
Visibility: 6 or more miles (10+ km)
Ceiling: at least 12,000 feet AGL
Clouds: few clouds at 1500 feet AGL
Weather: no significant weather observed at this time

METAR text: VVCR 222300Z 02006KT 9999 FEW013 SCT050 23/18 Q1016 NOSIG
Conditions at: VVCR (CAM RANH BAY , VN) observed 2300 UTC 22 January 2019
Temperature: 23.0°C (73°F)
Dewpoint: 18.0°C (64°F) [RH = 73%]
Pressure (altimeter): 30.00 inches Hg (1016.0 mb)
Winds: from the NNE (20 degrees) at 7 MPH (6 knots; 3.1 m/s)
Visibility: 6 or more miles (10+ km)
Ceiling: at least 12,000 feet AGL
Clouds: few clouds at 1300 feet AGL
scattered clouds at 5000 feet AGL
Weather: no significant weather observed at this time

METAR text: VVCR 222230Z 02007KT 9999 FEW013 SCT050 24/18 Q1016 NOSIG
Conditions at: VVCR (CAM RANH BAY , VN) observed 2230 UTC 22 January 2019
Temperature: 24.0°C (75°F)
Dewpoint: 18.0°C (64°F) [RH = 69%]
Pressure (altimeter): 30.00 inches Hg (1016.0 mb)
Winds: from the NNE (20 degrees) at 8 MPH (7 knots; 3.6 m/s)
Visibility: 6 or more miles (10+ km)
Ceiling: at least 12,000 feet AGL
Clouds: few clouds at 1300 feet AGL
scattered clouds at 5000 feet AGL
Weather: no significant weather observed at this time

METAR text: VVCR 222200Z 02006KT 9999 FEW013 SCT050 23/18 Q1016 NOSIG
Conditions at: VVCR (CAM RANH BAY , VN) observed 2200 UTC 22 January 2019
Temperature: 23.0°C (73°F)
Dewpoint: 18.0°C (64°F) [RH = 73%]
Pressure (altimeter): 30.00 inches Hg (1016.0 mb)
Winds: from the NNE (20 degrees) at 7 MPH (6 knots; 3.1 m/s)
Visibility: 6 or more miles (10+ km)
Ceiling: at least 12,000 feet AGL
Clouds: few clouds at 1300 feet AGL
scattered clouds at 5000 feet AGL
Weather: no significant weather observed at this time

METAR text: VVCR 222130Z 02007KT 9999 FEW013 SCT050 23/18 Q1016 NOSIG
Conditions at: VVCR (CAM RANH BAY , VN) observed 2130 UTC 22 January 2019
Temperature: 23.0°C (73°F)
Dewpoint: 18.0°C (64°F) [RH = 73%]
Pressure (altimeter): 30.00 inches Hg (1016.0 mb)
Winds: from the NNE (20 degrees) at 8 MPH (7 knots; 3.6 m/s)
Visibility: 6 or more miles (10+ km)
Ceiling: at least 12,000 feet AGL
Clouds: few clouds at 1300 feet AGL
scattered clouds at 5000 feet AGL
Weather: no significant weather observed at this time

METAR text: VVCR 222100Z 02006KT 9999 FEW013 SCT050 24/18 Q1016 NOSIG
Conditions at: VVCR (CAM RANH BAY , VN) observed 2100 UTC 22 January 2019
Temperature: 24.0°C (75°F)
Dewpoint: 18.0°C (64°F) [RH = 69%]
Pressure (altimeter): 30.00 inches Hg (1016.0 mb)
Winds: from the NNE (20 degrees) at 7 MPH (6 knots; 3.1 m/s)
Visibility: 6 or more miles (10+ km)
Ceiling: at least 12,000 feet AGL
Clouds: few clouds at 1300 feet AGL
scattered clouds at 5000 feet AGL
Weather: no significant weather observed at this time

METAR text: VVCR 222030Z 02008KT 9999 FEW013 SCT050 24/18 Q1015 NOSIG
Conditions at: VVCR (CAM RANH BAY , VN) observed 2030 UTC 22 January 2019
Temperature: 24.0°C (75°F)
Dewpoint: 18.0°C (64°F) [RH = 69%]
Pressure (altimeter): 29.97 inches Hg (1015.0 mb)
Winds: from the NNE (20 degrees) at 9 MPH (8 knots; 4.1 m/s)
Visibility: 6 or more miles (10+ km)
Ceiling: at least 12,000 feet AGL
Clouds: few clouds at 1300 feet AGL
scattered clouds at 5000 feet AGL
Weather: no significant weather observed at this time

METAR text: VVCR 222000Z 03009KT 9999 FEW013 SCT050 24/18 Q1016 NOSIG
Conditions at: VVCR (CAM RANH BAY , VN) observed 2000 UTC 22 January 2019
Temperature: 24.0°C (75°F)
Dewpoint: 18.0°C (64°F) [RH = 69%]
Pressure (altimeter): 30.00 inches Hg (1016.0 mb)
Winds: from the NNE (30 degrees) at 10 MPH (9 knots; 4.6 m/s)
Visibility: 6 or more miles (10+ km)
Ceiling: at least 12,000 feet AGL
Clouds: few clouds at 1300 feet AGL
scattered clouds at 5000 feet AGL
Weather: no significant weather observed at this time

METAR text: VVCR 221930Z 03008KT 9999 FEW013 SCT050 24/18 Q1016 NOSIG
Conditions at: VVCR (CAM RANH BAY , VN) observed 1930 UTC 22 January 2019
Temperature: 24.0°C (75°F)
Dewpoint: 18.0°C (64°F) [RH = 69%]
Pressure (altimeter): 30.00 inches Hg (1016.0 mb)
Winds: from the NNE (30 degrees) at 9 MPH (8 knots; 4.1 m/s)
Visibility: 6 or more miles (10+ km)
Ceiling: at least 12,000 feet AGL
Clouds: few clouds at 1300 feet AGL
scattered clouds at 5000 feet AGL
Weather: no significant weather observed at this time

METAR text: VVCR 221900Z 02007KT 9999 FEW013 SCT050 25/18 Q1016 NOSIG
Conditions at: VVCR (CAM RANH BAY , VN) observed 1900 UTC 22 January 2019
Temperature: 25.0°C (77°F)
Dewpoint: 18.0°C (64°F) [RH = 65%]
Pressure (altimeter): 30.00 inches Hg (1016.0 mb)
Winds: from the NNE (20 degrees) at 8 MPH (7 knots; 3.6 m/s)
Visibility: 6 or more miles (10+ km)
Ceiling: at least 12,000 feet AGL
Clouds: few clouds at 1300 feet AGL
scattered clouds at 5000 feet AGL
Weather: no significant weather observed at this time

METAR text: VVCR 221830Z 02007KT 9999 FEW013 SCT050 24/18 Q1016 NOSIG
Conditions at: VVCR (CAM RANH BAY , VN) observed 1830 UTC 22 January 2019
Temperature: 24.0°C (75°F)
Dewpoint: 18.0°C (64°F) [RH = 69%]
Pressure (altimeter): 30.00 inches Hg (1016.0 mb)
Winds: from the NNE (20 degrees) at 8 MPH (7 knots; 3.6 m/s)
Visibility: 6 or more miles (10+ km)
Ceiling: at least 12,000 feet AGL
Clouds: few clouds at 1300 feet AGL
scattered clouds at 5000 feet AGL
Weather: no significant weather observed at this time

METAR text: VVCR 221800Z 02005KT 9999 FEW013 SCT050 24/19 Q1017 NOSIG
Conditions at: VVCR (CAM RANH BAY , VN) observed 1800 UTC 22 January 2019
Temperature: 24.0°C (75°F)
Dewpoint: 19.0°C (66°F) [RH = 74%]
Pressure (altimeter): 30.03 inches Hg (1017.0 mb)
Winds: from the NNE (20 degrees) at 6 MPH (5 knots; 2.6 m/s)
Visibility: 6 or more miles (10+ km)
Ceiling: at least 12,000 feet AGL
Clouds: few clouds at 1300 feet AGL
scattered clouds at 5000 feet AGL
Weather: no significant weather observed at this time

METAR text: VVCR 221730Z 02007KT 9999 FEW013 SCT050 25/19 Q1017 NOSIG
Conditions at: VVCR (CAM RANH BAY , VN) observed 1730 UTC 22 January 2019
Temperature: 25.0°C (77°F)
Dewpoint: 19.0°C (66°F) [RH = 69%]
Pressure (altimeter): 30.03 inches Hg (1017.0 mb)
Winds: from the NNE (20 degrees) at 8 MPH (7 knots; 3.6 m/s)
Visibility: 6 or more miles (10+ km)
Ceiling: at least 12,000 feet AGL
Clouds: few clouds at 1300 feet AGL
scattered clouds at 5000 feet AGL
Weather: no significant weather observed at this time

METAR text: VVCR 221700Z 03008KT 9999 FEW013 SCT050 24/19 Q1017 NOSIG
Conditions at: VVCR (CAM RANH BAY , VN) observed 1700 UTC 22 January 2019
Temperature: 24.0°C (75°F)
Dewpoint: 19.0°C (66°F) [RH = 74%]
Pressure (altimeter): 30.03 inches Hg (1017.0 mb)
Winds: from the NNE (30 degrees) at 9 MPH (8 knots; 4.1 m/s)
Visibility: 6 or more miles (10+ km)
Ceiling: at least 12,000 feet AGL
Clouds: few clouds at 1300 feet AGL
scattered clouds at 5000 feet AGL
Weather: no significant weather observed at this time

METAR text: VVCR 221630Z 04010KT 9999 FEW013 SCT050 25/20 Q1017 NOSIG
Conditions at: VVCR (CAM RANH BAY , VN) observed 1630 UTC 22 January 2019
Temperature: 25.0°C (77°F)
Dewpoint: 20.0°C (68°F) [RH = 74%]
Pressure (altimeter): 30.03 inches Hg (1017.0 mb)
Winds: from the NE (40 degrees) at 12 MPH (10 knots; 5.1 m/s)
Visibility: 6 or more miles (10+ km)
Ceiling: at least 12,000 feet AGL
Clouds: few clouds at 1300 feet AGL
scattered clouds at 5000 feet AGL
Weather: no significant weather observed at this time

METAR text: VVCR 221600Z 04012KT 9999 FEW013 SCT050 25/20 Q1017 NOSIG
Conditions at: VVCR (CAM RANH BAY , VN) observed 1600 UTC 22 January 2019
Temperature: 25.0°C (77°F)
Dewpoint: 20.0°C (68°F) [RH = 74%]
Pressure (altimeter): 30.03 inches Hg (1017.0 mb)
Winds: from the NE (40 degrees) at 14 MPH (12 knots; 6.2 m/s)
Visibility: 6 or more miles (10+ km)
Ceiling: at least 12,000 feet AGL
Clouds: few clouds at 1300 feet AGL
scattered clouds at 5000 feet AGL
Weather: no significant weather observed at this time

METAR text: VVCR 221530Z 05014KT 9999 FEW013 25/20 Q1017 NOSIG
Conditions at: VVCR (CAM RANH BAY , VN) observed 1530 UTC 22 January 2019
Temperature: 25.0°C (77°F)
Dewpoint: 20.0°C (68°F) [RH = 74%]
Pressure (altimeter): 30.03 inches Hg (1017.0 mb)
Winds: from the NE (50 degrees) at 16 MPH (14 knots; 7.2 m/s)
Visibility: 6 or more miles (10+ km)
Ceiling: at least 12,000 feet AGL
Clouds: few clouds at 1300 feet AGL
Weather: no significant weather observed at this time

METAR text: VVCR 221500Z 05013KT 9999 FEW013 25/20 Q1017 NOSIG
Conditions at: VVCR (CAM RANH BAY , VN) observed 1500 UTC 22 January 2019
Temperature: 25.0°C (77°F)
Dewpoint: 20.0°C (68°F) [RH = 74%]
Pressure (altimeter): 30.03 inches Hg (1017.0 mb)
Winds: from the NE (50 degrees) at 15 MPH (13 knots; 6.7 m/s)
Visibility: 6 or more miles (10+ km)
Ceiling: at least 12,000 feet AGL
Clouds: few clouds at 1300 feet AGL
Weather: no significant weather observed at this time

METAR text: VVCR 221430Z 05015KT 9999 FEW013 25/20 Q1017 NOSIG
Conditions at: VVCR (CAM RANH BAY , VN) observed 1430 UTC 22 January 2019
Temperature: 25.0°C (77°F)
Dewpoint: 20.0°C (68°F) [RH = 74%]
Pressure (altimeter): 30.03 inches Hg (1017.0 mb)
Winds: from the NE (50 degrees) at 17 MPH (15 knots; 7.7 m/s)
Visibility: 6 or more miles (10+ km)
Ceiling: at least 12,000 feet AGL
Clouds: few clouds at 1300 feet AGL
Weather: no significant weather observed at this time

METAR text: VVCR 221400Z 04009KT 9999 FEW013 25/20 Q1017 NOSIG
Conditions at: VVCR (CAM RANH BAY , VN) observed 1400 UTC 22 January 2019
Temperature: 25.0°C (77°F)
Dewpoint: 20.0°C (68°F) [RH = 74%]
Pressure (altimeter): 30.03 inches Hg (1017.0 mb)
Winds: from the NE (40 degrees) at 10 MPH (9 knots; 4.6 m/s)
Visibility: 6 or more miles (10+ km)
Ceiling: at least 12,000 feet AGL
Clouds: few clouds at 1300 feet AGL
Weather: no significant weather observed at this time

METAR text: VVCR 221330Z 04015KT 9999 FEW013 25/20 Q1016 NOSIG
Conditions at: VVCR (CAM RANH BAY , VN) observed 1330 UTC 22 January 2019
Temperature: 25.0°C (77°F)
Dewpoint: 20.0°C (68°F) [RH = 74%]
Pressure (altimeter): 30.00 inches Hg (1016.0 mb)
Winds: from the NE (40 degrees) at 17 MPH (15 knots; 7.7 m/s)
Visibility: 6 or more miles (10+ km)
Ceiling: at least 12,000 feet AGL
Clouds: few clouds at 1300 feet AGL
Weather: no significant weather observed at this time

METAR text: VVCR 221300Z 04012KT 9999 FEW013 25/20 Q1016 NOSIG
Conditions at: VVCR (CAM RANH BAY , VN) observed 1300 UTC 22 January 2019
Temperature: 25.0°C (77°F)
Dewpoint: 20.0°C (68°F) [RH = 74%]
Pressure (altimeter): 30.00 inches Hg (1016.0 mb)
Winds: from the NE (40 degrees) at 14 MPH (12 knots; 6.2 m/s)
Visibility: 6 or more miles (10+ km)
Ceiling: at least 12,000 feet AGL
Clouds: few clouds at 1300 feet AGL
Weather: no significant weather observed at this time

METAR text: VVCR 221230Z 05013KT 9999 FEW013 25/20 Q1016 NOSIG
Conditions at: VVCR (CAM RANH BAY , VN) observed 1230 UTC 22 January 2019
Temperature: 25.0°C (77°F)
Dewpoint: 20.0°C (68°F) [RH = 74%]
Pressure (altimeter): 30.00 inches Hg (1016.0 mb)
Winds: from the NE (50 degrees) at 15 MPH (13 knots; 6.7 m/s)
Visibility: 6 or more miles (10+ km)
Ceiling: at least 12,000 feet AGL
Clouds: few clouds at 1300 feet AGL
Weather: no significant weather observed at this time

METAR text: VVCR 221200Z 05011KT 9999 FEW013 25/20 Q1016 NOSIG
Conditions at: VVCR (CAM RANH BAY , VN) observed 1200 UTC 22 January 2019
Temperature: 25.0°C (77°F)
Dewpoint: 20.0°C (68°F) [RH = 74%]
Pressure (altimeter): 30.00 inches Hg (1016.0 mb)
Winds: from the NE (50 degrees) at 13 MPH (11 knots; 5.7 m/s)
Visibility: 6 or more miles (10+ km)
Ceiling: at least 12,000 feet AGL
Clouds: few clouds at 1300 feet AGL
Weather: no significant weather observed at this time

METAR text: VVCR 221130Z 04011KT 9999 FEW013 25/21 Q1016 NOSIG
Conditions at: VVCR (CAM RANH BAY , VN) observed 1130 UTC 22 January 2019
Temperature: 25.0°C (77°F)
Dewpoint: 21.0°C (70°F) [RH = 79%]
Pressure (altimeter): 30.00 inches Hg (1016.0 mb)
Winds: from the NE (40 degrees) at 13 MPH (11 knots; 5.7 m/s)
Visibility: 6 or more miles (10+ km)
Ceiling: at least 12,000 feet AGL
Clouds: few clouds at 1300 feet AGL
Weather: no significant weather observed at this time

METAR text: VVCR 221100Z 04011KT 9999 FEW013 26/20 Q1015 NOSIG
Conditions at: VVCR (CAM RANH BAY , VN) observed 1100 UTC 22 January 2019
Temperature: 26.0°C (79°F)
Dewpoint: 20.0°C (68°F) [RH = 70%]
Pressure (altimeter): 29.97 inches Hg (1015.0 mb)
Winds: from the NE (40 degrees) at 13 MPH (11 knots; 5.7 m/s)
Visibility: 6 or more miles (10+ km)
Ceiling: at least 12,000 feet AGL
Clouds: few clouds at 1300 feet AGL
Weather: no significant weather observed at this time

METAR text: VVCR 221030Z 04014KT 9999 FEW013 26/20 Q1015 NOSIG
Conditions at: VVCR (CAM RANH BAY , VN) observed 1030 UTC 22 January 2019
Temperature: 26.0°C (79°F)
Dewpoint: 20.0°C (68°F) [RH = 70%]
Pressure (altimeter): 29.97 inches Hg (1015.0 mb)
Winds: from the NE (40 degrees) at 16 MPH (14 knots; 7.2 m/s)
Visibility: 6 or more miles (10+ km)
Ceiling: at least 12,000 feet AGL
Clouds: few clouds at 1300 feet AGL
Weather: no significant weather observed at this time

METAR text: VVCR 221000Z 05015KT 9999 FEW013 26/20 Q1015 NOSIG
Conditions at: VVCR (CAM RANH BAY , VN) observed 1000 UTC 22 January 2019
Temperature: 26.0°C (79°F)
Dewpoint: 20.0°C (68°F) [RH = 70%]
Pressure (altimeter): 29.97 inches Hg (1015.0 mb)
Winds: from the NE (50 degrees) at 17 MPH (15 knots; 7.7 m/s)
Visibility: 6 or more miles (10+ km)
Ceiling: at least 12,000 feet AGL
Clouds: few clouds at 1300 feet AGL
Weather: no significant weather observed at this time

METAR text: VVCR 220930Z 05018KT 9999 FEW013 27/21 Q1014 NOSIG
Conditions at: VVCR (CAM RANH BAY , VN) observed 0930 UTC 22 January 2019
Temperature: 27.0°C (81°F)
Dewpoint: 21.0°C (70°F) [RH = 70%]
Pressure (altimeter): 29.94 inches Hg (1014.0 mb)
Winds: from the NE (50 degrees) at 21 MPH (18 knots; 9.3 m/s)
Visibility: 6 or more miles (10+ km)
Ceiling: at least 12,000 feet AGL
Clouds: few clouds at 1300 feet AGL
Weather: no significant weather observed at this time

METAR text: VVCR 220900Z 04018KT 9999 FEW013 28/21 Q1014 NOSIG
Conditions at: VVCR (CAM RANH BAY , VN) observed 0900 UTC 22 January 2019
Temperature: 28.0°C (82°F)
Dewpoint: 21.0°C (70°F) [RH = 66%]
Pressure (altimeter): 29.94 inches Hg (1014.0 mb)
Winds: from the NE (40 degrees) at 21 MPH (18 knots; 9.3 m/s)
Visibility: 6 or more miles (10+ km)
Ceiling: at least 12,000 feet AGL
Clouds: few clouds at 1300 feet AGL
Weather: no significant weather observed at this time

METAR text: VVCR 220830Z 05017KT 9999 FEW013 SCT050 28/22 Q1014 NOSIG
Conditions at: VVCR (CAM RANH BAY , VN) observed 0830 UTC 22 January 2019
Temperature: 28.0°C (82°F)
Dewpoint: 22.0°C (72°F) [RH = 70%]
Pressure (altimeter): 29.94 inches Hg (1014.0 mb)
Winds: from the NE (50 degrees) at 20 MPH (17 knots; 8.7 m/s)
Visibility: 6 or more miles (10+ km)
Ceiling: at least 12,000 feet AGL
Clouds: few clouds at 1300 feet AGL
scattered clouds at 5000 feet AGL
Weather: no significant weather observed at this time

METAR text: VVCR 220800Z 05016KT 9999 FEW013 SCT050 29/22 Q1014 NOSIG
Conditions at: VVCR (CAM RANH BAY , VN) observed 0800 UTC 22 January 2019
Temperature: 29.0°C (84°F)
Dewpoint: 22.0°C (72°F) [RH = 66%]
Pressure (altimeter): 29.94 inches Hg (1014.0 mb)
Winds: from the NE (50 degrees) at 18 MPH (16 knots; 8.2 m/s)
Visibility: 6 or more miles (10+ km)
Ceiling: at least 12,000 feet AGL
Clouds: few clouds at 1300 feet AGL
scattered clouds at 5000 feet AGL
Weather: no significant weather observed at this time

METAR text: VVCR 220730Z 05016KT 9999 FEW010 BKN050 28/24 Q1015 NOSIG
Conditions at: VVCR (CAM RANH BAY , VN) observed 0730 UTC 22 January 2019
Temperature: 28.0°C (82°F)
Dewpoint: 24.0°C (75°F) [RH = 79%]
Pressure (altimeter): 29.97 inches Hg (1015.0 mb)
Winds: from the NE (50 degrees) at 18 MPH (16 knots; 8.2 m/s)
Visibility: 6 or more miles (10+ km)
Ceiling: 5000 feet AGL
Clouds: few clouds at 1000 feet AGL
broken clouds at 5000 feet AGL
Weather: no significant weather observed at this time

METAR text: VVCR 220700Z 05014KT 9999 FEW010 BKN050 28/25 Q1015 NOSIG
Conditions at: VVCR (CAM RANH BAY , VN) observed 0700 UTC 22 January 2019
Temperature: 28.0°C (82°F)
Dewpoint: 25.0°C (77°F) [RH = 84%]
Pressure (altimeter): 29.97 inches Hg (1015.0 mb)
Winds: from the NE (50 degrees) at 16 MPH (14 knots; 7.2 m/s)
Visibility: 6 or more miles (10+ km)
Ceiling: 5000 feet AGL
Clouds: few clouds at 1000 feet AGL
broken clouds at 5000 feet AGL
Weather: no significant weather observed at this time

METAR text: VVCR 220630Z 06013KT 9999 FEW010 BKN050 27/23 Q1015 NOSIG
Conditions at: VVCR (CAM RANH BAY , VN) observed 0630 UTC 22 January 2019
Temperature: 27.0°C (81°F)
Dewpoint: 23.0°C (73°F) [RH = 79%]
Pressure (altimeter): 29.97 inches Hg (1015.0 mb)
Winds: from the ENE (60 degrees) at 15 MPH (13 knots; 6.7 m/s)
Visibility: 6 or more miles (10+ km)
Ceiling: 5000 feet AGL
Clouds: few clouds at 1000 feet AGL
broken clouds at 5000 feet AGL
Weather: no significant weather observed at this time

METAR text: VVCR 220600Z 04012KT 8000 FEW007 SCT017 BKN040 25/22 Q1016 NOSIG
Conditions at: VVCR (CAM RANH BAY , VN) observed 0600 UTC 22 January 2019
Temperature: 25.0°C (77°F)
Dewpoint: 22.0°C (72°F) [RH = 83%]
Pressure (altimeter): 30.00 inches Hg (1016.0 mb)
Winds: from the NE (40 degrees) at 14 MPH (12 knots; 6.2 m/s)
Visibility: 5 miles ( 8 km)
Ceiling: 4000 feet AGL
Clouds: few clouds at 700 feet AGL
scattered clouds at 1700 feet AGL
broken clouds at 4000 feet AGL
Weather: no significant weather observed at this time

METAR text: VVCR 220530Z 05012KT 6000 -RA FEW007 SCT017 BKN040 25/22 Q1016 NOSIG
Conditions at: VVCR (CAM RANH BAY , VN) observed 0530 UTC 22 January 2019
Temperature: 25.0°C (77°F)
Dewpoint: 22.0°C (72°F) [RH = 83%]
Pressure (altimeter): 30.00 inches Hg (1016.0 mb)
Winds: from the NE (50 degrees) at 14 MPH (12 knots; 6.2 m/s)
Visibility: 4 miles ( 6 km)
Ceiling: 4000 feet AGL
Clouds: few clouds at 700 feet AGL
scattered clouds at 1700 feet AGL
broken clouds at 4000 feet AGL
Weather: -RA  (light rain)

METAR text: VVCR 220500Z 02013KT 9999 FEW007 SCT015 BKN040 26/23 Q1017 NOSIG
Conditions at: VVCR (CAM RANH BAY , VN) observed 0500 UTC 22 January 2019
Temperature: 26.0°C (79°F)
Dewpoint: 23.0°C (73°F) [RH = 84%]
Pressure (altimeter): 30.03 inches Hg (1017.0 mb)
Winds: from the NNE (20 degrees) at 15 MPH (13 knots; 6.7 m/s)
Visibility: 6 or more miles (10+ km)
Ceiling: 4000 feet AGL
Clouds: few clouds at 700 feet AGL
scattered clouds at 1500 feet AGL
broken clouds at 4000 feet AGL
Weather: no significant weather observed at this time

METAR text: VVCR 220430Z 03013KT 8000 FEW007 SCT015 BKN040 25/23 Q1017 NOSIG
Conditions at: VVCR (CAM RANH BAY , VN) observed 0430 UTC 22 January 2019
Temperature: 25.0°C (77°F)
Dewpoint: 23.0°C (73°F) [RH = 89%]
Pressure (altimeter): 30.03 inches Hg (1017.0 mb)
Winds: from the NNE (30 degrees) at 15 MPH (13 knots; 6.7 m/s)
Visibility: 5 miles ( 8 km)
Ceiling: 4000 feet AGL
Clouds: few clouds at 700 feet AGL
scattered clouds at 1500 feet AGL
broken clouds at 4000 feet AGL
Weather: no significant weather observed at this time

Forecast for: VVCR (CAM RANH BAY , VN)
Text: TAF VVCR 231100Z 2312/2412 03016KT 9999 SCT013 BKN040
Forecast period: 1200 UTC 23 January 2019 to 1200 UTC 24 January 2019
Forecast type: FROM: standard forecast or significant change
Winds: from the NNE (30 degrees) at 18 MPH (16 knots; 8.2 m/s)
Visibility: 6 or more miles 10+ km)
Ceiling: 4000 feet AGL
Clouds: scattered clouds at 1300 feet AGL
broken clouds at 4000 feet AGL
Weather: no significant weather forecast for this period